Time;durP1;ratioP1;P1;durP2;ratioP2;P2;SDS_P1;SDS_P2;PMS_P1;PMS_P2;Temp;Humidity;BMP_temperature;BMP_pressure;BME280_temperature;BME280_humidity;BME280_pressure;Samples;Min_cycle;Max_cycle;Signal;HPM_P1;HPM_P2
2022/06/03 00:01:39;;;;;;;5.32;4.57;;;;;;;10.70;100.00;163362.38;5068528;28;20071;-60
2022/06/03 00:04:29;;;;;;;4.85;4.43;;;;;;;10.72;100.00;163367.78;5069762;28;20390;-60
2022/06/03 00:07:13;;;;;;;5.18;4.65;;;;;;;10.70;100.00;163362.38;5068262;28;20123;-61
2022/06/03 00:10:05;;;;;;;7.72;5.93;;;;;;;10.60;100.00;163335.41;5070273;28;20054;-61
2022/06/03 00:12:49;;;;;;;5.30;4.80;;;;;;;10.47;100.00;163303.00;5069188;28;20048;-61
2022/06/03 00:15:15;;;;;;;5.00;4.50;;;;;;;10.40;100.00;163284.09;5068547;28;20391;-61
2022/06/03 00:17:58;;;;;;;8.48;4.43;;;;;;;10.37;100.00;163276.03;5069737;28;20115;-61
2022/06/03 00:20:48;;;;;;;5.18;4.78;;;;;;;10.33;100.00;163265.16;5069206;28;20040;-61
2022/06/03 00:23:16;;;;;;;7.80;4.65;;;;;;;10.29;100.00;163254.38;5070469;28;20031;-61
2022/06/03 00:26:23;;;;;;;7.05;5.90;;;;;;;10.26;100.00;163246.25;5068210;28;20052;-62
2022/06/03 00:29:08;;;;;;;9.20;5.90;;;;;;;10.24;100.00;163240.91;5073375;28;20036;-61
2022/06/03 00:31:46;;;;;;;9.60;6.70;;;;;;;10.23;100.00;163238.19;5072411;28;20040;-62
2022/06/03 00:34:26;;;;;;;5.65;5.10;;;;;;;10.16;100.00;163220.63;5073939;28;20028;-62
2022/06/03 00:37:42;;;;;;;4.40;4.10;;;;;;;10.14;100.00;163216.59;5071517;28;20456;-62
2022/06/03 00:40:37;;;;;;;5.60;5.10;;;;;;;10.16;100.00;163221.94;5071104;28;20036;-62
2022/06/03 00:43:09;;;;;;;7.80;5.90;;;;;;;10.16;100.00;163221.94;5073113;28;20040;-62
2022/06/03 00:46:00;;;;;;;5.93;5.03;;;;;;;10.18;100.00;163224.66;5071874;28;20625;-62
2022/06/03 00:48:58;;;;;;;6.47;5.05;;;;;;;10.21;100.00;163232.78;5073360;28;20027;-62
2022/06/03 00:51:53;;;;;;;8.98;6.38;;;;;;;10.21;100.00;163232.78;5071538;28;20120;-62
2022/06/03 00:54:36;;;;;;;7.38;6.47;;;;;;;10.22;100.00;163235.47;5072992;28;20040;-61
2022/06/03 00:57:23;;;;;;;7.03;6.43;;;;;;;10.24;100.00;163240.91;5071465;28;20078;-61
2022/06/03 01:00:15;;;;;;;6.55;5.95;;;;;;;10.26;100.00;163247.63;5072706;28;20097;-61
2022/06/03 01:03:16;;;;;;;7.03;5.53;;;;;;;10.28;100.00;163251.66;5071644;28;20701;-61
2022/06/03 01:05:50;;;;;;;5.85;5.35;;;;;;;10.28;100.00;163251.66;5071470;28;20040;-61
2022/06/03 01:08:32;;;;;;;5.53;5.10;;;;;;;10.27;100.00;163248.97;5073020;28;20452;-61
2022/06/03 01:11:16;;;;;;;5.55;5.05;;;;;;;10.27;100.00;163250.34;5071424;28;20044;-61
2022/06/03 01:14:01;;;;;;;8.13;6.45;;;;;;;10.27;100.00;163248.97;5072202;28;20103;-61
2022/06/03 01:16:53;;;;;;;5.25;4.85;;;;;;;10.24;100.00;163242.22;5071676;28;20044;-61
2022/06/03 01:19:30;;;;;;;5.35;4.85;;;;;;;10.19;100.00;163228.75;5072867;28;20610;-61
2022/06/03 01:22:33;;;;;;;6.38;5.32;;;;;;;10.16;100.00;163220.63;5070866;28;20136;-62
2022/06/03 01:25:18;;;;;;;6.65;6.03;;;;;;;10.15;100.00;163217.91;5070831;28;20048;-62
2022/06/03 01:28:16;;;;;;;9.48;6.70;;;;;;;10.13;100.00;163213.88;5064105;28;20068;-61
2022/06/03 01:31:19;;;;;;;5.60;5.05;;;;;;;10.14;100.00;163216.59;5071405;28;20117;-61
2022/06/03 01:34:08;;;;;;;6.28;5.70;;;;;;;10.14;100.00;163216.59;5072434;28;20032;-61
2022/06/03 01:37:09;;;;;;;7.57;5.63;;;;;;;10.13;100.00;163212.50;5070684;28;20039;-61
2022/06/03 01:40:12;;;;;;;7.18;6.10;;;;;;;10.12;100.00;163211.19;5071247;28;20508;-61
2022/06/03 01:43:22;;;;;;;10.10;7.50;;;;;;;10.09;100.00;163203.06;5070722;28;20041;-61
2022/06/03 01:46:06;;;;;;;6.70;5.32;;;;;;;10.06;100.00;163195.00;5070733;28;20037;-60
2022/06/03 01:49:01;;;;;;;5.85;4.90;;;;;;;10.03;100.00;163186.88;5071829;28;20032;-60
2022/06/03 01:51:52;;;;;;;6.03;5.32;;;;;;;10.04;100.00;163189.59;5070365;28;20041;-60
2022/06/03 01:54:49;;;;;;;7.10;6.50;;;;;;;10.01;100.00;163181.53;5072153;28;20032;-60
2022/06/03 01:57:35;;;;;;;7.07;5.78;;;;;;;10.00;100.00;163178.81;5069738;28;20025;-60
2022/06/03 02:00:22;;;;;;;7.75;6.10;;;;;;;9.96;100.00;163169.38;5070442;28;20036;-60
2022/06/03 02:03:13;;;;;;;6.70;6.10;;;;;;;9.96;100.00;163168.00;5071724;28;20024;-61
2022/06/03 02:05:58;;;;;;;9.65;7.28;;;;;;;9.97;100.00;163170.69;5070106;28;20503;-61
2022/06/03 02:08:42;;;;;;;6.38;5.80;;;;;;;9.97;100.00;163170.69;5051762;28;20104;-61
2022/06/03 02:11:35;;;;;;;8.70;7.47;;;;;;;9.93;100.00;163159.94;5050399;28;20051;-61
2022/06/03 02:14:15;;;;;;;12.25;6.30;;;;;;;9.91;100.00;163154.50;5051583;28;20383;-61
2022/06/03 02:17:04;;;;;;;7.47;6.00;;;;;;;9.90;100.00;163153.19;5057667;28;20463;-61
2022/06/03 02:20:01;;;;;;;8.68;7.72;;;;;;;9.88;100.00;163146.41;5070903;28;20140;-61
2022/06/03 02:22:51;;;;;;;6.55;5.93;;;;;;;9.90;100.00;163151.81;5070269;28;20514;-61
2022/06/03 02:25:35;;;;;;;6.78;6.18;;;;;;;9.87;100.00;163143.69;5069818;28;20049;-61
2022/06/03 02:28:16;;;;;;;7.13;6.47;;;;;;;9.88;100.00;163147.78;5070570;28;20040;-61
2022/06/03 02:31:35;;;;;;;11.93;6.35;;;;;;;9.88;100.00;163147.78;5069777;28;20404;-62
2022/06/03 02:34:22;;;;;;;9.73;7.82;;;;;;;9.90;100.00;163151.81;5068120;28;20040;-62
2022/06/03 02:36:59;;;;;;;7.18;6.47;;;;;;;9.90;100.00;163151.81;5059158;28;20091;-61
2022/06/03 02:39:42;;;;;;;7.50;6.88;;;;;;;9.87;100.00;163143.69;5050703;28;20510;-61
2022/06/03 02:42:20;;;;;;;7.28;6.55;;;;;;;9.87;100.00;163143.69;5064184;28;20044;-61
2022/06/03 02:45:07;;;;;;;6.63;6.10;;;;;;;9.83;100.00;163135.63;5070850;28;20547;-61
2022/06/03 02:48:07;;;;;;;8.65;7.55;;;;;;;9.79;100.00;163124.81;5069417;28;20055;-62
2022/06/03 02:51:18;;;;;;;10.65;7.57;;;;;;;9.77;100.00;163118.06;5068575;28;20209;-62
2022/06/03 02:54:17;;;;;;;10.50;6.55;;;;;;;9.75;100.00;163114.03;5070805;28;20380;-59
2022/06/03 02:57:01;;;;;;;9.20;7.90;;;;;;;9.72;100.00;163105.91;5059424;28;20492;-60
2022/06/03 02:59:40;;;;;;;7.95;7.25;;;;;;;9.68;100.00;163095.16;5050846;28;20029;-60
2022/06/03 03:02:31;;;;;;;9.68;7.90;;;;;;;9.66;100.00;163089.75;5049453;28;20091;-60
2022/06/03 03:05:07;;;;;;;10.23;7.53;;;;;;;9.66;100.00;163089.75;5050346;28;20028;-60
2022/06/03 03:08:08;;;;;;;13.30;7.85;;;;;;;9.64;100.00;163084.38;5062826;28;20106;-61
2022/06/03 03:10:52;;;;;;;11.02;7.47;;;;;;;9.61;100.00;163076.28;5069469;28;20185;-60
2022/06/03 03:13:49;;;;;;;14.75;9.77;;;;;;;9.58;100.00;163069.53;5068597;28;20028;-61
2022/06/03 03:16:32;;;;;;;8.75;7.70;;;;;;;9.58;100.00;163069.53;5059245;28;20032;-61
2022/06/03 03:19:41;;;;;;;9.70;8.15;;;;;;;9.55;100.00;163061.41;5059256;28;20025;-60
2022/06/03 03:22:17;;;;;;;;;;;;;;;9.57;100.00;163065.50;5059284;28;20037;-60
2022/06/03 03:25:20;;;;;;;8.20;7.43;;;;;;;9.56;100.00;163062.78;5060424;28;19921;-61
2022/06/03 03:28:13;;;;;;;8.40;7.70;;;;;;;9.56;100.00;163062.78;5059982;28;20098;-60
2022/06/03 03:30:53;;;;;;;9.60;8.70;;;;;;;9.55;100.00;163060.09;5058094;28;20345;-61
2022/06/03 03:33:31;;;;;;;11.88;8.35;;;;;;;9.52;100.00;163054.69;5059555;28;20100;-61
2022/06/03 03:36:19;;;;;;;9.05;8.13;;;;;;;9.51;100.00;163051.97;5056575;28;20036;-59
2022/06/03 03:38:50;;;;;;;9.65;8.75;;;;;;;9.52;100.00;163054.69;5060100;28;20044;-59
2022/06/03 03:41:40;;;;;;;18.60;10.52;;;;;;;9.53;100.00;163057.38;5057473;28;20041;-62
2022/06/03 03:44:12;;;;;;;10.43;9.25;;;;;;;9.58;100.00;163068.16;5060481;28;20415;-62
2022/06/03 03:47:18;;;;;;;9.63;8.63;;;;;;;9.63;100.00;163083.00;5052207;28;20120;-62
2022/06/03 03:50:01;;;;;;;9.68;8.77;;;;;;;9.71;100.00;163101.91;5069200;28;20032;-62
2022/06/03 03:52:41;;;;;;;11.20;8.95;;;;;;;9.76;100.00;163115.38;5068747;28;20411;-61
2022/06/03 03:55:58;;;;;;;10.20;9.15;;;;;;;9.87;100.00;163143.69;5069008;28;20032;-61
2022/06/03 03:58:55;;;;;;;11.20;9.30;;;;;;;9.96;100.00;163168.00;5065099;28;20059;-61
2022/06/03 04:01:47;;;;;;;11.35;7.75;;;;;;;10.07;100.00;163196.31;5051027;28;20124;-61
2022/06/03 04:04:49;;;;;;;11.82;8.50;;;;;;;10.15;100.00;163219.28;5054025;28;20033;-61
2022/06/03 04:07:33;;;;;;;9.65;8.77;;;;;;;10.23;100.00;163238.19;5065336;28;20113;-62
2022/06/03 04:10:20;;;;;;;13.30;9.13;;;;;;;10.34;100.00;163267.84;5073510;28;20024;-62
2022/06/03 04:13:22;;;;;;;10.10;9.05;;;;;;;10.42;100.00;163289.50;5053148;28;20106;-58
2022/06/03 04:16:15;;;;;;;10.30;9.02;;;;;;;10.53;100.00;163317.84;5071320;28;20098;-57
2022/06/03 04:19:11;;;;;;;9.15;7.97;;;;;;;10.61;100.00;163339.44;5073402;28;20082;-57
2022/06/03 04:22:07;;;;;;;18.85;11.32;;;;;;;10.68;100.00;163357.03;5071435;28;20561;-57
2022/06/03 04:24:40;;;;;;;8.98;8.20;;;;;;;10.74;100.00;163373.22;5071422;28;20492;-57
2022/06/03 04:27:38;;;;;;;13.35;8.88;;;;;;;10.78;100.00;163384.00;5071869;28;20044;-57
2022/06/03 04:30:30;;;;;;;9.63;7.72;;;;;;;10.82;100.00;163392.09;5068270;28;20067;-57
2022/06/03 04:33:19;;;;;;;9.15;8.25;;;;;;;10.86;100.00;163402.88;5073000;28;20032;-57
2022/06/03 04:36:06;;;;;;;12.40;7.15;;;;;;;10.91;100.00;163416.38;5071347;28;20449;-57
2022/06/03 04:38:50;;;;;;;10.32;8.80;;;;;;;10.94;100.00;163424.50;5072942;28;20088;-57
2022/06/03 04:41:52;;;;;;;10.15;7.50;;;;;;;10.94;100.00;163425.88;5071574;28;20127;-57
2022/06/03 04:45:02;;;;;;;13.98;10.18;;;;;;;10.97;100.00;163431.22;5073438;28;20411;-57
2022/06/03 04:47:46;;;;;;;10.35;9.40;;;;;;;10.95;100.00;163427.19;5071128;28;20484;-57
2022/06/03 04:50:27;;;;;;;8.90;7.90;;;;;;;10.97;100.00;163432.63;5072041;28;20024;-57
2022/06/03 04:53:19;;;;;;;8.48;7.45;;;;;;;10.95;100.00;163428.53;5067837;28;20032;-57
2022/06/03 04:56:22;;;;;;;11.35;9.20;;;;;;;10.94;100.00;163424.50;5070386;28;20041;-57
2022/06/03 04:59:09;;;;;;;9.65;7.75;;;;;;;10.99;100.00;163437.97;5072867;28;20036;-56
2022/06/03 05:01:52;;;;;;;12.45;8.02;;;;;;;11.01;100.00;163443.38;5071003;28;20033;-56
2022/06/03 05:04:56;;;;;;;11.05;7.95;;;;;;;11.07;100.00;163459.59;5071579;28;20395;-56
2022/06/03 05:07:21;;;;;;;8.50;6.80;;;;;;;11.13;100.00;163473.13;5070462;28;20637;-56
2022/06/03 05:10:24;;;;;;;8.13;7.32;;;;;;;11.16;100.00;163481.19;5060887;28;20357;-56
2022/06/03 05:13:07;;;;;;;15.02;8.77;;;;;;;11.24;100.00;163502.81;5059159;28;20128;-56
2022/06/03 05:16:02;;;;;;;9.82;7.45;;;;;;;11.30;100.00;163519.00;5060720;28;20182;-56
2022/06/03 05:18:52;;;;;;;13.05;7.90;;;;;;;11.37;100.00;163537.91;5060859;28;20032;-56
2022/06/03 05:21:51;;;;;;;8.38;6.93;;;;;;;11.47;100.00;163562.22;5061275;28;20118;-56
2022/06/03 05:24:35;;;;;;;7.43;6.75;;;;;;;11.53;100.00;163578.41;5061856;28;20387;-56
2022/06/03 05:27:35;;;;;;;11.85;6.57;;;;;;;11.62;100.00;163602.75;5061268;28;20562;-56
2022/06/03 05:30:33;;;;;;;10.43;6.85;;;;;;;11.72;100.00;163628.41;5045966;28;20045;-55
2022/06/03 05:33:10;;;;;;;9.20;7.70;;;;;;;11.82;100.00;163654.06;5061921;28;20040;-56
2022/06/03 05:36:06;;;;;;;11.18;7.63;;;;;;;-146.58;100.00;69501.63;5060661;28;20040;-56
2022/06/03 05:39:09;;;;;;;6.55;5.95;;;;;;;-146.58;100.00;69501.63;5061438;28;20111;-56
2022/06/03 05:45:07;;;;;;;10.77;7.15;;;;;;;-146.58;100.00;69501.63;5061844;28;20028;-56
2022/06/03 05:47:50;;;;;;;7.55;6.85;;;;;;;12.42;100.00;163810.84;5060195;28;20116;-56
2022/06/03 05:50:23;;;;;;;6.65;5.97;;;;;;;12.52;100.00;163837.88;5060379;28;20017;-56
2022/06/03 05:53:25;;;;;;;8.00;6.13;;;;;;;12.63;100.00;163867.59;5060452;28;20056;-56
2022/06/03 05:56:24;;;;;;;13.35;6.53;;;;;;;12.77;100.00;163904.09;5064492;28;20372;-56
2022/06/03 05:58:52;;;;;;;7.70;5.28;;;;;;;12.91;100.00;163940.63;5061277;28;20112;-56
2022/06/03 06:01:49;;;;;;;10.65;6.55;;;;;;;13.06;100.00;163978.47;5058671;28;20045;-56
2022/06/03 06:04:14;;;;;;;10.50;6.60;;;;;;;13.17;100.00;164008.19;5062064;28;20039;-56
2022/06/03 06:06:52;;;;;;;10.05;6.70;;;;;;;13.29;100.00;164040.59;5058735;28;20116;-56
2022/06/03 06:09:43;;;;;;;7.43;5.80;;;;;;;13.40;100.00;164067.72;5059981;28;20029;-56
2022/06/03 06:12:36;;;;;;;7.28;6.10;;;;;;;13.57;100.00;164113.72;5053028;28;20459;-56
2022/06/03 06:15:04;;;;;;;7.65;5.80;;;;;;;13.70;100.00;164146.16;5049736;28;20067;-56
2022/06/03 06:18:03;;;;;;;8.73;5.45;;;;;;;13.88;100.00;164193.47;5049729;28;20041;-56
2022/06/03 06:20:56;;;;;;;5.35;4.85;;;;;;;14.11;100.00;164254.38;5049685;28;20055;-56
2022/06/03 06:23:31;;;;;;;5.47;5.00;;;;;;;14.24;100.00;164289.53;5051021;28;20166;-56
2022/06/03 06:26:20;;;;;;;7.75;5.00;;;;;;;14.41;100.00;164332.78;5049423;28;20067;-56
2022/06/03 06:28:46;;;;;;;6.07;5.55;;;;;;;14.67;100.00;164401.84;5050900;28;20028;-56
2022/06/03 06:31:38;;;;;;;7.97;5.40;;;;;;;15.13;100.00;164520.94;5049258;28;20295;-56
2022/06/03 06:34:12;;;;;;;6.15;5.13;;;;;;;15.46;100.00;164608.94;5050608;28;20041;-56
2022/06/03 06:37:15;;;;;;;5.28;4.88;;;;;;;15.76;100.00;164687.47;5049596;28;20440;-56
2022/06/03 06:40:09;;;;;;;6.63;5.97;;;;;;;16.02;100.00;164755.22;5050935;28;20031;-56
2022/06/03 06:42:53;;;;;;;6.40;5.22;;;;;;;15.94;100.00;164734.91;5048997;28;20045;-56
2022/06/03 06:45:55;;;;;;;5.30;4.80;;;;;;;15.93;100.00;164730.84;5049652;28;20081;-56
2022/06/03 06:48:46;;;;;;;7.43;4.78;;;;;;;16.13;100.00;164785.00;5051351;28;20384;-56
2022/06/03 06:51:40;;;;;;;7.60;5.03;;;;;;;16.25;100.00;164814.81;5049788;28;20562;-56
2022/06/03 06:54:27;;;;;;;6.80;4.78;;;;;;;16.34;100.00;164839.22;5051004;28;20059;-56
2022/06/03 06:57:01;;;;;;;10.75;6.13;;;;;;;16.46;100.00;164871.72;5049454;28;20041;-56
2022/06/03 06:59:44;;;;;;;8.52;6.15;;;;;;;16.57;100.00;164898.81;5050902;28;20094;-56
2022/06/03 07:02:22;;;;;;;8.13;6.05;;;;;;;16.58;100.00;164901.47;5049283;28;20479;-56
2022/06/03 07:04:58;;;;;;;5.57;5.00;;;;;;;16.72;100.00;164939.41;5050782;28;20121;-56
2022/06/03 07:07:51;;;;;;;6.50;4.80;;;;;;;16.85;100.00;164973.28;5049350;28;20038;-56
2022/06/03 07:10:25;;;;;;;6.47;5.03;;;;;;;16.86;100.00;164974.69;5041338;28;20117;-56
2022/06/03 07:13:31;;;;;;;5.20;4.72;;;;;;;16.50;100.00;164882.53;5050567;28;20027;-56
2022/06/03 07:16:14;;;;;;;5.90;5.00;;;;;;;16.92;100.00;164990.94;5048619;28;20037;-56
2022/06/03 07:21:51;;;;;;;10.15;4.57;;;;;;;17.46;100.00;165131.91;5049647;28;20072;-57
2022/06/03 07:24:27;;;;;;;4.32;3.95;;;;;;;17.47;100.00;165134.59;5049973;28;20029;-56
2022/06/03 07:26:58;;;;;;;6.75;4.57;;;;;;;17.09;100.00;165037.00;5048963;28;20508;-56
2022/06/03 07:29:41;;;;;;;6.00;4.80;;;;;;;17.38;100.00;165112.94;5050453;28;20112;-56
2022/06/03 07:32:16;;;;;;;5.10;4.68;;;;;;;17.31;100.00;165093.97;5048735;28;20037;-56
2022/06/03 07:35:01;;;;;;;5.15;4.45;;;;;;;17.55;100.00;165156.28;5050138;28;20503;-56
2022/06/03 07:37:37;;;;;;;4.18;3.75;;;;;;;17.73;100.00;165205.09;5048857;28;20116;-57
2022/06/03 07:40:36;;;;;;;7.13;4.90;;;;;;;17.77;100.00;165215.91;5048629;28;20028;-56
2022/06/03 07:43:08;;;;;;;7.40;4.22;;;;;;;17.68;100.00;165191.56;5018865;28;20068;-56
2022/06/03 07:45:51;;;;;;;5.70;3.95;;;;;;;17.83;100.00;165230.84;5048762;28;20492;-56
2022/06/03 07:48:22;;;;;;;12.63;8.57;;;;;;;17.67;100.00;165188.84;5050316;28;20017;-56
2022/06/03 07:50:58;;;;;;;6.85;4.22;;;;;;;17.62;100.00;165173.91;5048792;28;20048;-57
2022/06/03 07:53:56;;;;;;;5.03;4.63;;;;;;;17.83;100.00;165229.50;5049886;28;20032;-56
2022/06/03 07:56:26;;;;;;;11.05;6.50;;;;;;;18.07;100.00;165293.25;5048973;28;20136;-56
2022/06/03 07:58:56;;;;;;;4.70;4.35;;;;;;;18.32;100.00;165359.69;5050077;28;20027;-57
2022/06/03 08:01:28;;;;;;;7.25;3.97;;;;;;;18.48;100.00;165400.38;5048497;28;20317;-56
2022/06/03 08:03:54;;;;;;;10.90;5.53;;;;;;;18.52;100.00;165411.19;5049932;28;20017;-56
2022/06/03 08:10:56;;;;;;;9.57;5.10;;;;;;;18.84;100.00;165496.63;5048852;28;20041;-56
2022/06/03 08:12:02;;;;;;;8.13;4.28;;;;;;;19.09;100.00;165560.47;5048156;28;20071;-56
2022/06/03 08:14:27;;;;;;;8.52;4.03;;;;;;;18.86;100.00;165502.06;5049731;28;20025;-57
2022/06/03 08:16:54;;;;;;;5.53;4.53;;;;;;;19.29;100.00;165614.72;5049721;28;20127;-57
2022/06/03 08:19:27;;;;;;;4.65;4.25;;;;;;;19.41;100.00;165644.53;5068507;28;20039;-56
2022/06/03 08:21:56;;;;;;;7.55;4.50;;;;;;;18.89;100.00;165507.50;5066265;28;20056;-56
2022/06/03 08:24:32;;;;;;;4.85;3.45;;;;;;;18.81;100.00;165488.53;5066087;28;20068;-57
2022/06/03 08:27:10;;;;;;;14.80;4.63;;;;;;;19.37;100.00;165633.72;5067849;28;20549;-56
2022/06/03 08:29:38;;;;;;;5.45;4.40;;;;;;;20.03;100.00;165807.44;5069397;28;20024;-56
2022/06/03 08:32:34;;;;;;;4.32;3.20;;;;;;;20.12;100.00;165831.88;5068085;28;20517;-56
2022/06/03 08:35:04;;;;;;;4.57;3.38;;;;;;;20.31;100.00;165880.72;5068295;28;20111;-56
2022/06/03 08:37:35;;;;;;;6.95;3.42;;;;;;;19.94;100.00;165784.38;5068070;28;20032;-57
2022/06/03 08:40:10;;;;;;;7.18;4.18;;;;;;;20.39;100.00;165902.44;5061307;28;20495;-54
2022/06/03 08:42:55;;;;;;;5.20;3.72;;;;;;;20.22;100.00;165859.00;5069334;28;20055;-56
2022/06/03 08:45:39;;;;;;;5.88;4.28;;;;;;;20.18;100.00;165846.84;5055103;28;20037;-56
2022/06/03 08:48:11;;;;;;;4.55;3.80;;;;;;;20.69;100.00;165981.19;5051280;28;20029;-57
2022/06/03 08:50:55;;;;;;;3.65;3.20;;;;;;;20.86;100.00;166027.41;5051881;28;20043;-57
2022/06/03 08:53:41;;;;;;;5.55;3.28;;;;;;;20.66;100.00;165973.06;5052905;28;20484;-57
2022/06/03 08:56:10;;;;;;;4.65;3.50;;;;;;;20.71;100.00;165986.63;5051952;28;20063;-56
2022/06/03 08:58:49;;;;;;;4.35;3.10;;;;;;;20.72;100.00;165989.34;5053227;28;20017;-57
2022/06/03 09:01:36;;;;;;;4.97;3.78;;;;;;;21.31;100.00;166144.19;5051560;28;20048;-57
2022/06/03 09:04:28;;;;;;;2.97;2.67;;;;;;;21.58;100.00;166214.84;5051678;28;20431;-57
2022/06/03 09:07:35;;;;;;;6.80;3.17;;;;;;;21.76;100.00;166263.78;5051010;28;20131;-57
2022/06/03 09:10:19;;;;;;;5.18;2.83;;;;;;;21.40;100.00;166168.66;5051392;28;20069;-57
2022/06/03 09:13:12;;;;;;;5.55;2.83;;;;;;;21.61;100.00;166224.34;5053020;28;20033;-57
2022/06/03 09:15:40;;;;;;;4.80;2.90;;;;;;;21.52;100.00;166199.91;5051414;28;20035;-57
2022/06/03 09:18:21;;;;;;;4.72;2.90;;;;;;;21.15;100.00;166103.44;5052817;28;20103;-57
2022/06/03 09:21:01;;;;;;;6.30;2.63;;;;;;;21.08;100.00;166084.44;5051300;28;20047;-57
2022/06/03 09:23:28;;;;;;;5.35;3.13;;;;;;;21.62;100.00;166225.75;5052598;28;20025;-57
2022/06/03 09:25:57;;;;;;;6.20;3.42;;;;;;;22.10;100.00;166352.06;5050706;28;20048;-57
2022/06/03 09:28:27;;;;;;;2.60;2.28;;;;;;;22.31;100.00;166407.75;5052878;28;20114;-57
2022/06/03 09:30:54;;;;;;;6.93;2.05;;;;;;;22.64;100.00;166494.78;5051233;28;20128;-57
2022/06/03 09:33:22;;;;;;;4.53;3.10;;;;;;;22.32;94.96;166410.47;5052397;28;20024;-57
2022/06/03 09:35:51;;;;;;;4.43;3.03;;;;;;;22.73;92.51;166517.88;5050870;28;20542;-57
2022/06/03 09:38:21;;;;;;;6.25;2.80;;;;;;;22.25;89.35;166392.84;5052554;28;20071;-57
2022/06/03 09:40:47;;;;;;;6.95;4.05;;;;;;;21.65;90.10;166235.25;5051062;28;20414;-57
2022/06/03 09:43:15;;;;;;;5.50;2.53;;;;;;;21.44;90.21;166179.50;5052154;28;20029;-57
2022/06/03 09:45:46;;;;;;;3.70;3.40;;;;;;;21.75;91.80;166261.03;5050444;28;20094;-57
2022/06/03 09:48:15;;;;;;;4.10;2.85;;;;;;;22.06;88.69;166342.56;5051934;28;20426;-57
2022/06/03 09:50:46;;;;;;;2.95;2.35;;;;;;;22.05;92.89;166339.84;5061982;28;20040;-57
2022/06/03 09:53:11;;;;;;;2.50;2.30;;;;;;;22.15;93.07;166366.97;5051741;28;20029;-57
2022/06/03 09:55:47;;;;;;;3.80;2.03;;;;;;;22.37;92.70;166424.09;5050316;28;20048;-58
2022/06/03 09:58:19;;;;;;;8.15;2.25;;;;;;;22.25;87.24;166391.44;5051342;28;20112;-56
2022/06/03 10:00:51;;;;;;;6.43;3.08;;;;;;;21.72;88.03;166252.88;5050597;28;20047;-56
2022/06/03 10:03:17;;;;;;;2.95;2.75;;;;;;;21.54;87.29;166206.69;5051529;28;20036;-56
2022/06/03 10:05:47;;;;;;;3.10;2.65;;;;;;;21.46;86.97;166184.94;5055835;28;20044;-56
2022/06/03 10:08:12;;;;;;;6.82;3.45;;;;;;;21.96;93.83;166315.38;5071991;28;20100;-56
2022/06/03 10:13:23;;;;;;;2.90;2.38;;;;;;;22.34;85.05;166415.91;5071278;28;20048;-56
2022/06/03 10:16:03;;;;;;;4.15;2.25;;;;;;;22.35;85.92;166418.66;5070008;28;20083;-56
2022/06/03 10:18:40;;;;;;;3.92;3.13;;;;;;;22.62;85.45;166489.34;5071151;28;20024;-57
2022/06/03 10:21:06;;;;;;;4.65;3.55;;;;;;;22.28;85.51;166399.63;5069979;28;20047;-57
2022/06/03 10:23:41;;;;;;;2.47;2.28;;;;;;;22.42;89.28;166437.72;5071298;28;20103;-56
2022/06/03 10:26:06;;;;;;;5.55;3.22;;;;;;;23.12;89.58;166622.53;5069977;28;20060;-56
2022/06/03 10:28:37;;;;;;;5.05;3.17;;;;;;;23.18;81.84;166637.53;5070412;28;20376;-56
2022/06/03 10:31:12;;;;;;;4.65;1.67;;;;;;;23.41;83.21;166698.75;5068681;28;20071;-56
2022/06/03 10:33:37;;;;;;;3.45;2.15;;;;;;;23.41;83.21;166698.75;5058092;28;20028;-56
2022/06/03 10:36:05;;;;;;;5.75;2.47;;;;;;;23.56;81.70;166736.81;5068847;28;20064;-56
2022/06/03 10:38:33;;;;;;;3.03;2.70;;;;;;;23.41;75.94;166698.75;5070725;28;20094;-56
2022/06/03 10:41:05;;;;;;;2.83;2.42;;;;;;;23.55;81.32;166734.06;5068769;28;21079;-56
2022/06/03 10:43:32;;;;;;;5.78;3.15;;;;;;;23.35;75.84;166682.38;5070845;28;20476;-56
2022/06/03 10:46:10;;;;;;;3.40;2.33;;;;;;;23.56;79.58;166736.81;5069542;28;20141;-60
2022/06/03 10:48:35;;;;;;;2.90;2.45;;;;;;;23.08;75.38;166611.66;5071267;28;20015;-57
2022/06/03 10:51:13;;;;;;;5.38;2.60;;;;;;;22.75;75.94;166524.66;5069194;28;20515;-57
2022/06/03 11:02:03;;;;;;;6.88;3.90;;;;;;;23.11;74.15;166619.84;5068745;28;20048;-57
2022/06/03 11:04:37;;;;;;;4.30;2.90;;;;;;;23.25;73.63;166655.22;5070857;28;20039;-56
2022/06/03 11:07:21;;;;;;;4.40;2.03;;;;;;;23.65;77.88;166761.25;5068788;28;20040;-57
2022/06/03 11:09:58;;;;;;;6.97;2.25;;;;;;;23.60;72.08;166747.66;5070408;28;20073;-57
2022/06/03 11:12:26;;;;;;;3.17;2.75;;;;;;;23.48;73.85;166715.03;5068890;28;20041;-56
2022/06/03 11:14:52;;;;;;;2.90;2.65;;;;;;;23.36;70.84;166683.78;5070475;28;20024;-56
2022/06/03 11:17:33;;;;;;;3.55;2.22;;;;;;;23.25;71.44;166656.56;5069227;28;20048;-57
2022/06/03 11:19:59;;;;;;;4.70;2.40;;;;;;;23.93;70.86;166834.75;5070123;28;20480;-57
2022/06/03 11:22:39;;;;;;;5.53;2.53;;;;;;;23.69;68.62;166772.16;5068993;28;20047;-57
2022/06/03 11:25:10;;;;;;;2.53;2.33;;;;;;;23.70;66.56;166773.47;5068707;28;20140;-56
2022/06/03 11:27:57;;;;;;;4.35;2.47;;;;;;;24.05;67.05;166866.03;5070105;28;20023;-57
2022/06/03 11:30:46;;;;;;;2.10;1.95;;;;;;;24.64;72.05;167022.44;5069121;28;20036;-57
2022/06/03 11:33:26;;;;;;;5.15;2.35;;;;;;;24.84;71.66;167074.16;5070549;28;20032;-57
2022/06/03 11:35:57;;;;;;;10.23;2.17;;;;;;;24.61;67.82;167014.25;5068418;28;20036;-56
2022/06/03 11:38:34;;;;;;;5.65;1.60;;;;;;;24.78;66.43;167057.84;5070410;28;20105;-57
2022/06/03 11:41:10;;;;;;;4.80;1.58;;;;;;;24.65;70.87;167025.16;5068813;28;20992;-57
2022/06/03 11:43:53;;;;;;;3.50;2.25;;;;;;;24.54;63.55;166995.19;5070592;28;20610;-57
2022/06/03 11:46:24;;;;;;;2.55;1.98;;;;;;;24.36;63.88;166949.00;5068965;28;20073;-57
2022/06/03 11:48:51;;;;;;;3.67;1.75;;;;;;;24.39;62.57;166957.13;5069958;28;20035;-56
2022/06/03 11:51:17;;;;;;;5.50;2.27;;;;;;;23.86;61.50;166815.66;5068597;28;20043;-57
2022/06/03 11:53:47;;;;;;;3.03;2.30;;;;;;;23.84;61.44;166810.22;5069983;28;20435;-57
2022/06/03 11:56:16;;;;;;;4.35;1.73;;;;;;;24.08;63.44;166875.56;5069135;28;20052;-57
2022/06/03 11:58:59;;;;;;;4.43;1.98;;;;;;;24.38;66.57;166954.44;5069681;28;20387;-57
2022/06/03 12:01:48;;;;;;;4.53;1.85;;;;;;;24.19;63.01;166902.72;5069045;28;20082;-57
2022/06/03 12:04:22;;;;;;;2.58;1.90;;;;;;;24.42;62.19;166962.56;5069790;28;20662;-57
2022/06/03 12:07:11;;;;;;;7.13;1.80;;;;;;;24.59;63.58;167008.84;5068542;28;20094;-57
2022/06/03 12:10:04;;;;;;;1.80;1.58;;;;;;;24.52;59.75;166989.78;5070224;28;20056;-56
2022/06/03 12:15:33;;;;;;;4.55;2.00;;;;;;;24.12;56.40;166883.69;5068826;28;20064;-57
2022/06/03 12:18:16;;;;;;;1.42;1.33;;;;;;;23.65;56.02;166761.25;5069939;28;20028;-57
2022/06/03 12:20:47;;;;;;;2.30;1.92;;;;;;;23.86;58.33;166815.66;5064448;28;20041;-57
2022/06/03 12:23:12;;;;;;;2.15;1.95;;;;;;;23.60;56.41;166747.66;5072682;28;20040;-57
2022/06/03 12:25:40;;;;;;;2.67;2.35;;;;;;;24.02;58.72;166859.19;5072216;28;20186;-57
2022/06/03 12:28:14;;;;;;;7.57;1.77;;;;;;;24.03;57.22;166861.91;5072580;28;20033;-57
2022/06/03 12:30:50;;;;;;;5.78;2.70;;;;;;;23.88;56.20;166822.47;5052319;28;20041;-57
2022/06/03 12:34:01;;;;;;;3.63;1.90;;;;;;;23.65;57.09;166761.25;5067206;28;20035;-57
2022/06/03 12:36:45;;;;;;;3.03;2.00;;;;;;;23.70;57.49;166773.47;5071693;28;20146;-57
2022/06/03 12:39:33;;;;;;;2.95;1.63;;;;;;;24.31;60.84;166934.00;5073010;28;20086;-57
2022/06/03 12:42:27;;;;;;;3.88;1.48;;;;;;;24.85;58.92;167076.88;5071586;28;20068;-57
2022/06/03 12:45:04;;;;;;;1.90;1.65;;;;;;;24.92;55.67;167095.91;5070201;28;20487;-57
2022/06/03 12:47:36;;;;;;;3.17;1.67;;;;;;;25.16;58.64;167158.50;5068373;28;20044;-57
2022/06/03 12:50:04;;;;;;;2.20;1.27;;;;;;;25.03;56.73;167124.50;5071094;28;20029;-56
2022/06/03 12:52:29;;;;;;;2.22;1.23;;;;;;;25.49;59.02;167245.69;5073091;28;20044;-57
2022/06/03 12:55:21;;;;;;;4.80;1.83;;;;;;;25.61;56.36;167278.31;5072094;28;20108;-57